Historyczne dane pomiarowe

Dodano dane terminowe – wersja testowa.

Dane z okresu 1951-2019

Wersja bazy: 1.34 [2019-03-16, lista zmian], aktualizacja planowana na 2019-04-15

Dane meteo z obszaru Polski uzyskane na podstawie danych udostępnionych przez Instytut Meteorologii i Gospodarki Wodnej – Państwowy Instytut Badawczy.

 

Wybierz Datę:    

       

TemperaturaWilgotnośćWiatrCiśnienieOpadyŚniegCzas trwania zjawisk
 Stacja t tx tn tng RH VA  wxwx mslp ppp RRR   cm mm wxwxwxwxwxwxwx
2014-10-11 13.0 22.9 7.3 6.8-- 2.7----- 0.0------------
2014-10-12 13.6 23.2 8.6 6.9-- 0.7----- 0.0------------
2014-10-13 14.6 22.9 9.6 9.2-- 6.7----- 0.0------------
2014-10-14 15.5 23.4 9.9 8.0-- 3.3----- 0.4------------
2014-10-15 11.0 17.8 6.0 4.4-- 6.3----- 0.4------------
2014-10-16 12.5 18.2 8.2 7.2-- 8.0----- 9.2------------
2014-10-17 13.2 15.6 11.8 9.7-- 8.0----- 2.2------------
2014-10-18 10.4 13.2 8.8 6.9-- 4.0----- 0.0------------
2014-10-19 10.0 16.6 5.6 4.9-- 3.7----- 0.0------------
2014-10-20 12.9 14.0 11.9 9.5-- 6.7----- 4.8------------
2014-10-21 10.4 14.9 8.8 5.9-- 5.0----- 0.0------------
2014-10-22 8.0 11.6 4.9 5.4-- 8.0----- 10.8------------
2014-10-23 7.2 10.3 3.9 3.8-- 8.0----- 3.3------------
2014-10-24 1.3 4.4 0.1 -0.9-- 8.0----- 0.0------------
2014-10-25 0.9 3.5 -0.6 0.3-- 8.0----- 0.0------------
2014-10-26 2.4 7.8 0.0 -1.3-- 5.3----- 0.0------------
2014-10-27 1.7 10.5 -2.2 -1.8-- 2.7----- 0.0------------
2014-10-28 1.0 10.0 -3.1 -2.3-- 2.7----- 0.0------------
2014-10-29 0.8 12.4 -4.7 -5.9-- 0.0----- 0.0------------
2014-10-30 1.2 10.8 -3.7 -5.0-- 0.0----- 0.0------------
2014-10-31 3.7 7.8 -0.9 -2.5-- 8.0----- 0.0------------
2014-11-01 4.7 10.0 0.6 0.5-- 8.0----- 0.0------------
2014-11-02 7.6 11.6 6.1 4.5-- 4.7----- 0.3------------
2014-11-03 8.8 13.4 5.2 2.3-- 0.7----- 0.0------------
2014-11-04 11.4 14.9 8.8 7.2-- 0.7----- 0.0------------
2014-11-05 12.9 16.7 10.0 5.1-- 0.0----- 0.0------------
2014-11-06 15.0 18.2 13.5 10.6-- 3.3----- 0.0------------
2014-11-07 15.1 18.2 11.2 6.3-- 7.3----- 2.0------------
2014-11-08 12.8 20.5 9.0 7.4-- 6.7----- 0.6------------
2014-11-09 11.5 13.9 10.6 10.1-- 8.0----- 0.0------------
138.8 ms

 

Źródłem pochodzenia danych jest Instytut Meteorologii i Gospodarki Wodnej – Państwowy Instytut Badawczy. Dane Instytutu Meteorologii i Gospodarki Wodnej – Państwowego Instytutu Badawczego zostały przetworzone.

Dane źródłowe można odnaleźć na stronie https://dane.imgw.pl